首页
METAR-TAF:

METAR-TAF

机场 :

Savannah/Hilton Head International Airport

薩凡納, 喬治亞, 美国

纬度: 32-07-08N, 经度: 081-12-08W, 海拔: 15米

当前天气观测

该预报发布于56分钟前的13:53 UTC
风速3节,风向西北
温度 7°C
湿度 81%
气压 1028 hPa
能見度: 16.1公里
散云层高于22000英尺

METAR: KSAV 231353Z 32003KT 10SM SCT220 07/04 A3035 RMK AO2 SLP278 T00670039 $

时间: 09:49 (14:49 UTC)

预报

该预报发布于3小时和18分钟前的11:31 UTC
预报有效从23日的 12点(UTC)到 24日的 12点(UTC)
风速5节,风向多变
能見度: 10公里
多云层高于25000英尺
从 24日的 0000点(UTC)
风速3节,风向多变
能見度: 10公里
散云层高于4000英尺
多云层高于12000英尺

TAF: KSAV 231131Z 2312/2412 VRB05KT P6SM BKN250 FM240000 VRB03KT P6SM SCT040 BKN120

超过4000个机场的气象观测和天气预报(METAR&TAF报告)。

可查询的气象台以黄色和红色小点在地图上表示。

将鼠标移到小点上方,可查看气象台名称。

然后点击查看天气观测和预报。

如需切换地图:点击带黑十字的绿色按钮放大地图;点击带横线的绿色按钮缩小地图;或者点击绿色箭头查看邻近地区的地图。


METAR-TAF: